createdAt,value
2022-09-14T00:00:42.273Z,68.11
2022-09-14T00:11:08.864Z,67.61
2022-09-14T00:21:13.116Z,67.63
2022-09-14T00:31:16.457Z,67.67
2022-09-14T00:41:24.497Z,68.26
2022-09-14T00:51:29.421Z,70.04
2022-09-14T01:01:31.630Z,69.29
2022-09-14T01:11:52.238Z,69.64
2022-09-14T01:21:59.119Z,70.23
2022-09-14T01:32:05.898Z,70.10
2022-09-14T01:42:10.650Z,70.44
2022-09-14T01:52:22.519Z,69.36
2022-09-14T02:02:33.524Z,70.53
2022-09-14T02:12:36.597Z,69.66
2022-09-14T02:22:38.808Z,69.11
2022-09-14T02:32:59.675Z,69.92
2022-09-14T02:43:33.065Z,69.91
2022-09-14T02:54:04.842Z,70.27
2022-09-14T03:04:07.005Z,70.33
2022-09-14T03:14:10.964Z,69.57
2022-09-14T03:24:13.041Z,69.87
2022-09-14T03:34:15.222Z,70.17
2022-09-14T03:44:17.480Z,70.55
2022-09-14T03:54:19.812Z,71.78
2022-09-14T04:04:22.027Z,71.18
2022-09-14T04:14:24.295Z,70.37
2022-09-14T04:24:30.115Z,70.35
2022-09-14T04:34:32.979Z,70.55
2022-09-14T04:44:35.128Z,71.55
2022-09-14T04:54:37.329Z,71.80
2022-09-14T05:04:39.433Z,72.24
2022-09-14T05:14:41.586Z,71.12
2022-09-14T05:24:43.711Z,71.98
2022-09-14T05:34:45.830Z,72.79
2022-09-14T05:44:48.014Z,72.00
2022-09-14T05:54:50.338Z,72.54
2022-09-14T06:04:52.638Z,71.55
2022-09-14T06:14:54.819Z,71.05
2022-09-14T06:24:56.900Z,70.86
2022-09-14T06:34:59.088Z,70.83
2022-09-14T06:45:01.166Z,70.79
2022-09-14T06:55:03.898Z,70.33
2022-09-14T07:05:06.173Z,69.77
2022-09-14T07:15:08.940Z,69.81
2022-09-14T07:25:11.412Z,70.50
2022-09-14T07:35:13.520Z,70.37
2022-09-14T07:45:15.671Z,69.82
2022-09-14T07:55:18.510Z,69.85
2022-09-14T08:05:22.466Z,70.55
2022-09-14T08:15:28.443Z,69.10
2022-09-14T08:25:31.508Z,68.64
2022-09-14T08:35:56.563Z,69.09
2022-09-14T08:46:03.643Z,68.75
2022-09-14T08:56:23.211Z,68.20
2022-09-14T09:06:50.407Z,67.47
2022-09-14T09:16:57.025Z,67.90
2022-09-14T09:26:59.177Z,67.88
2022-09-14T09:37:01.511Z,67.64
2022-09-14T09:47:03.947Z,67.76
2022-09-14T09:57:19.687Z,66.77
2022-09-14T10:07:23.056Z,66.48
2022-09-14T10:17:25.317Z,66.19
2022-09-14T10:27:55.733Z,66.82
2022-09-14T10:38:00.501Z,67.03
2022-09-14T10:48:34.463Z,67.97
2022-09-14T10:58:55.846Z,67.55
2022-09-14T11:09:22.227Z,67.86
2022-09-14T11:19:39.852Z,66.40
2022-09-14T11:29:47.670Z,66.29
2022-09-14T11:40:02.070Z,66.31
2022-09-14T11:50:28.448Z,65.63
2022-09-14T12:01:05.297Z,65.72
2022-09-14T12:11:10.418Z,66.20
2022-09-14T12:21:25.832Z,66.60
2022-09-14T12:31:33.134Z,66.69
2022-09-14T12:41:35.340Z,67.37
2022-09-14T12:51:46.348Z,67.23
2022-09-14T13:01:58.109Z,67.89
2022-09-14T13:12:10.100Z,68.41
2022-09-14T13:22:22.275Z,67.17
2022-09-14T13:32:24.439Z,67.09
2022-09-14T13:42:27.538Z,65.85
2022-09-14T13:52:57.530Z,66.32
2022-09-14T14:03:02.322Z,67.34
2022-09-14T14:13:05.330Z,67.70
2022-09-14T14:23:10.749Z,67.69
2022-09-14T14:33:14.591Z,67.35
2022-09-14T14:43:19.252Z,68.17
2022-09-14T14:53:22.875Z,67.33
2022-09-14T15:03:25.085Z,67.94
2022-09-14T15:13:27.309Z,68.35
2022-09-14T15:23:29.553Z,68.20
2022-09-14T15:33:32.285Z,69.15
2022-09-14T15:43:34.999Z,69.02
2022-09-14T15:53:38.130Z,69.52
2022-09-14T16:03:43.017Z,69.28
2022-09-14T16:13:45.316Z,69.79
2022-09-14T16:24:00.347Z,69.46
2022-09-14T16:34:06.563Z,70.29
2022-09-14T16:44:13.467Z,70.55
2022-09-14T16:54:17.936Z,70.44
2022-09-14T17:04:23.542Z,70.10
2022-09-14T17:14:32.641Z,70.82
2022-09-14T17:24:34.821Z,71.09
2022-09-14T17:34:37.250Z,70.98
2022-09-14T17:44:41.065Z,70.92
2022-09-14T17:54:43.311Z,71.51
2022-09-14T18:04:48.913Z,71.41
2022-09-14T18:14:51.059Z,71.51
2022-09-14T18:24:53.627Z,71.65
2022-09-14T18:34:55.999Z,71.48
2022-09-14T18:44:58.260Z,71.49
2022-09-14T18:55:00.345Z,71.72
2022-09-14T19:05:02.540Z,72.15
2022-09-14T19:15:05.621Z,72.04
2022-09-14T19:25:08.215Z,72.62
2022-09-14T19:35:10.691Z,72.17
2022-09-14T19:45:15.057Z,72.33
2022-09-14T19:55:17.676Z,72.41
2022-09-14T20:05:19.779Z,72.93
2022-09-14T20:15:21.906Z,72.63
2022-09-14T20:25:24.007Z,73.34
2022-09-14T20:35:26.104Z,73.06
2022-09-14T20:45:28.214Z,73.98
2022-09-14T20:55:32.774Z,73.24
2022-09-14T21:05:34.874Z,73.48
2022-09-14T21:15:37.999Z,73.23
2022-09-14T21:25:40.261Z,73.82
2022-09-14T21:35:43.085Z,74.28
2022-09-14T21:45:45.593Z,73.69
2022-09-14T21:55:47.669Z,73.93
2022-09-14T22:10:11.040Z,74.71
2022-09-14T22:20:13.673Z,75.82
2022-09-14T22:30:15.966Z,75.05
2022-09-14T22:40:18.091Z,76.09
2022-09-14T22:50:20.226Z,74.97
2022-09-14T23:00:22.287Z,76.65
2022-09-14T23:10:24.702Z,76.88
2022-09-14T23:20:26.833Z,77.27
2022-09-14T23:30:28.985Z,77.32
2022-09-14T23:40:31.187Z,77.23
2022-09-14T23:50:33.988Z,77.29
